createdAt,value
2019-05-20T00:00:40.702Z,23.65
2019-05-20T00:03:09.153Z,25.62
2019-05-20T00:05:37.639Z,21.70
2019-05-20T00:08:06.052Z,22.02
2019-05-20T00:10:34.485Z,26.95
2019-05-20T00:13:02.922Z,22.10
2019-05-20T00:15:31.336Z,23.27
2019-05-20T00:18:01.291Z,23.55
2019-05-20T00:20:29.714Z,26.80
2019-05-20T00:22:58.139Z,25.27
2019-05-20T00:25:27.614Z,24.52
2019-05-20T00:27:56.032Z,23.00
2019-05-20T00:30:24.454Z,23.62
2019-05-20T00:32:52.872Z,23.20
2019-05-20T00:35:21.329Z,27.48
2019-05-20T00:37:49.730Z,26.87
2019-05-20T00:40:18.160Z,21.27
2019-05-20T00:42:46.658Z,26.10
2019-05-20T00:45:16.692Z,24.57
2019-05-20T00:47:45.176Z,24.60
2019-05-20T00:50:13.907Z,27.67
2019-05-20T00:52:42.277Z,26.30
2019-05-20T00:55:16.194Z,23.83
2019-05-20T00:57:44.648Z,26.07
2019-05-20T01:00:13.295Z,26.27
2019-05-20T01:02:55.803Z,31.70
2019-05-20T01:05:11.862Z,27.75
2019-05-20T01:07:40.310Z,29.98
2019-05-20T01:10:08.820Z,28.12
2019-05-20T01:12:37.362Z,24.85
2019-05-20T01:15:06.890Z,32.28
2019-05-20T01:17:35.372Z,29.23
2019-05-20T01:20:06.608Z,29.95
2019-05-20T01:22:35.730Z,26.27
2019-05-20T01:25:06.004Z,26.33
2019-05-20T01:27:35.904Z,27.87
2019-05-20T01:30:06.591Z,29.37
2019-05-20T01:32:35.125Z,29.15
2019-05-20T01:35:03.916Z,28.87
2019-05-20T01:37:32.461Z,32.28
2019-05-20T01:40:00.906Z,32.03
2019-05-20T01:42:29.352Z,31.77
2019-05-20T01:44:57.772Z,30.30
2019-05-20T01:47:26.192Z,32.40
2019-05-20T01:49:54.680Z,32.05
2019-05-20T01:52:23.110Z,33.40
2019-05-20T01:54:51.554Z,33.53
2019-05-20T01:57:20.024Z,32.40
2019-05-20T01:59:48.455Z,35.38
2019-05-20T02:02:16.879Z,36.38
2019-05-20T02:04:45.301Z,33.83
2019-05-20T02:07:13.813Z,37.23
2019-05-20T02:09:42.268Z,39.40
2019-05-20T02:12:10.669Z,35.55
2019-05-20T02:14:40.736Z,33.18
2019-05-20T02:17:09.318Z,40.48
2019-05-20T02:19:37.786Z,44.18
2019-05-20T02:22:06.230Z,36.68
2019-05-20T02:24:37.840Z,42.55
2019-05-20T02:27:06.290Z,39.90
2019-05-20T02:29:34.733Z,39.50
2019-05-20T02:32:03.157Z,40.63
2019-05-20T02:34:31.588Z,37.15
2019-05-20T02:37:00.026Z,37.45
2019-05-20T02:39:28.438Z,38.75
2019-05-20T02:41:56.893Z,40.48
2019-05-20T02:44:25.321Z,38.70
2019-05-20T02:46:53.779Z,36.15
2019-05-20T02:49:22.216Z,42.67
2019-05-20T02:51:51.229Z,37.90
2019-05-20T02:54:19.669Z,40.45
2019-05-20T02:56:48.100Z,44.53
2019-05-20T02:59:16.512Z,45.90
2019-05-20T03:01:44.939Z,41.55
2019-05-20T03:04:13.463Z,39.78
2019-05-20T03:06:41.918Z,41.10
2019-05-20T03:09:12.380Z,40.12
2019-05-20T03:11:44.037Z,45.40
2019-05-20T03:14:12.452Z,37.85
2019-05-20T03:16:42.954Z,42.33
2019-05-20T03:19:11.408Z,43.50
2019-05-20T03:21:39.842Z,44.48
2019-05-20T03:24:08.283Z,47.90
2019-05-20T03:26:36.775Z,43.55
2019-05-20T03:29:05.289Z,49.10
2019-05-20T03:31:33.758Z,48.00
2019-05-20T03:34:02.189Z,51.33
2019-05-20T03:36:30.619Z,49.10
2019-05-20T03:38:59.040Z,48.38
2019-05-20T03:41:27.466Z,48.35
2019-05-20T03:43:56.171Z,50.03
2019-05-20T03:46:24.629Z,54.27
2019-05-20T03:48:53.138Z,52.90
2019-05-20T03:51:21.580Z,55.35
2019-05-20T03:53:50.002Z,56.85
2019-05-20T03:56:18.484Z,53.15
2019-05-20T03:58:46.871Z,51.48
2019-05-20T04:01:15.291Z,53.83
2019-05-20T04:03:43.772Z,57.03
2019-05-20T04:06:12.187Z,50.95
2019-05-20T04:08:40.668Z,47.38
2019-05-20T04:11:09.147Z,54.50
2019-05-20T04:13:37.609Z,55.20
2019-05-20T04:16:06.085Z,49.55
2019-05-20T04:18:34.537Z,50.63
2019-05-20T04:21:03.132Z,49.40
2019-05-20T04:23:31.633Z,49.15
2019-05-20T04:26:00.054Z,51.05
2019-05-20T04:28:28.537Z,43.42
2019-05-20T04:30:56.985Z,50.43
2019-05-20T04:33:25.432Z,47.13
2019-05-20T04:35:53.848Z,46.58
2019-05-20T04:38:22.280Z,42.48
2019-05-20T04:40:52.323Z,47.70
2019-05-20T04:43:20.845Z,44.60
2019-05-20T04:45:49.284Z,41.45
2019-05-20T04:48:17.813Z,47.80
2019-05-20T04:50:46.251Z,48.45
2019-05-20T04:53:14.675Z,50.88
2019-05-20T04:55:43.167Z,51.13
2019-05-20T04:58:11.633Z,54.18
2019-05-20T05:00:48.611Z,48.13
2019-05-20T05:03:17.092Z,48.48
2019-05-20T05:05:45.539Z,50.65
2019-05-20T05:08:14.122Z,52.73
2019-05-20T05:10:42.693Z,54.13
2019-05-20T05:13:11.208Z,59.03
2019-05-20T05:15:39.673Z,58.65
2019-05-20T05:18:08.287Z,55.15
2019-05-20T05:20:36.783Z,55.08
2019-05-20T05:23:05.279Z,62.08
2019-05-20T05:25:35.610Z,62.98
2019-05-20T05:28:04.941Z,64.82
2019-05-20T05:30:35.260Z,73.67
2019-05-20T05:33:03.807Z,80.00
2019-05-20T05:35:32.266Z,88.00
2019-05-20T05:38:00.847Z,85.57
2019-05-20T05:40:30.814Z,93.62
2019-05-20T05:42:59.281Z,82.43
2019-05-20T05:45:32.279Z,85.95
2019-05-20T05:48:01.581Z,99.85
2019-05-20T05:50:30.575Z,88.87
2019-05-20T05:52:59.605Z,90.05
2019-05-20T05:55:28.157Z,91.67
2019-05-20T05:57:56.660Z,78.30
2019-05-20T06:00:26.826Z,87.90
2019-05-20T06:02:55.371Z,86.50
2019-05-20T06:05:23.951Z,85.47
2019-05-20T06:07:53.255Z,85.60
2019-05-20T06:10:22.253Z,84.30
2019-05-20T06:12:50.700Z,92.70
2019-05-20T06:15:19.728Z,90.97
2019-05-20T06:17:48.205Z,86.37
2019-05-20T06:20:17.317Z,81.50
2019-05-20T06:22:45.779Z,87.95
2019-05-20T06:25:14.757Z,81.47
2019-05-20T06:27:46.331Z,90.53
2019-05-20T06:30:15.538Z,87.70
2019-05-20T06:32:44.078Z,78.35
2019-05-20T06:35:14.367Z,80.12
2019-05-20T06:37:47.533Z,89.87
2019-05-20T06:40:19.358Z,85.10
2019-05-20T06:42:47.874Z,89.07
2019-05-20T06:45:16.498Z,79.25
2019-05-20T06:47:45.135Z,71.25
2019-05-20T06:50:15.355Z,69.22
2019-05-20T06:52:45.367Z,77.55
2019-05-20T06:55:14.845Z,70.08
2019-05-20T06:57:43.354Z,82.40
2019-05-20T07:00:12.870Z,81.92
2019-05-20T07:02:41.351Z,88.70
2019-05-20T07:05:12.877Z,82.65
2019-05-20T07:07:41.404Z,82.88
2019-05-20T07:10:10.196Z,81.02
2019-05-20T07:12:41.548Z,84.45
2019-05-20T07:15:09.272Z,84.42
2019-05-20T07:17:39.411Z,89.52
2019-05-20T07:20:08.358Z,87.62
2019-05-20T07:22:54.518Z,85.67
2019-05-20T07:25:07.530Z,93.47
2019-05-20T07:27:36.004Z,88.65
2019-05-20T07:30:05.808Z,80.80
2019-05-20T07:32:34.357Z,84.25
2019-05-20T07:35:02.985Z,82.33
2019-05-20T07:37:31.543Z,91.20
2019-05-20T07:40:00.029Z,97.33
2019-05-20T07:42:28.547Z,86.47
2019-05-20T07:44:57.072Z,92.30
2019-05-20T07:47:25.795Z,94.25
2019-05-20T07:49:54.541Z,93.12
2019-05-20T07:52:25.542Z,89.58
2019-05-20T07:54:56.307Z,86.25
2019-05-20T07:57:27.878Z,93.10
2019-05-20T07:59:58.059Z,85.00
2019-05-20T08:02:27.223Z,81.97
2019-05-20T08:05:03.863Z,87.30
2019-05-20T08:07:51.331Z,90.77
2019-05-20T08:10:44.015Z,96.20
2019-05-20T08:13:31.796Z,88.50
2019-05-20T08:16:02.856Z,98.82
2019-05-20T08:18:47.626Z,105.75
2019-05-20T08:21:17.711Z,96.63
2019-05-20T08:23:49.578Z,94.90
2019-05-20T08:26:16.438Z,85.77
2019-05-20T08:28:47.928Z,91.22
2019-05-20T08:31:16.368Z,88.78
2019-05-20T08:33:45.058Z,84.47
2019-05-20T08:36:13.577Z,84.60
2019-05-20T08:38:42.059Z,83.75
2019-05-20T08:41:10.652Z,82.05
2019-05-20T08:43:39.219Z,78.33
2019-05-20T08:46:07.794Z,74.80
2019-05-20T08:48:37.871Z,81.12
2019-05-20T08:51:06.458Z,83.35
2019-05-20T08:53:34.908Z,80.05
2019-05-20T08:56:09.224Z,81.92
2019-05-20T08:58:37.870Z,80.32
2019-05-20T09:01:11.957Z,81.75
2019-05-20T09:03:39.216Z,82.22
2019-05-20T09:06:09.264Z,74.10
2019-05-20T09:08:37.802Z,71.75
2019-05-20T09:11:06.294Z,73.67
2019-05-20T09:13:39.767Z,68.00
2019-05-20T09:16:08.436Z,60.50
2019-05-20T09:18:44.228Z,60.05
2019-05-20T09:21:20.531Z,63.85
2019-05-20T09:23:54.348Z,63.33
2019-05-20T09:26:26.967Z,62.15
2019-05-20T09:28:55.496Z,60.20
2019-05-20T09:31:27.210Z,57.90
2019-05-20T09:33:58.580Z,61.40
2019-05-20T09:36:42.438Z,65.08
2019-05-20T09:39:18.721Z,62.13
2019-05-20T09:41:47.235Z,61.10
2019-05-20T09:44:15.669Z,59.88
2019-05-20T09:46:44.176Z,57.98
2019-05-20T09:49:12.602Z,61.53
2019-05-20T09:51:41.063Z,63.52
2019-05-20T09:54:09.479Z,62.67
2019-05-20T09:56:37.967Z,58.33
2019-05-20T09:59:06.488Z,55.48
2019-05-20T10:01:39.426Z,63.68
2019-05-20T10:04:05.136Z,59.98
2019-05-20T10:06:33.621Z,65.32
2019-05-20T10:09:02.063Z,61.95
2019-05-20T10:11:30.532Z,60.83
2019-05-20T10:13:58.968Z,63.13
2019-05-20T10:16:27.470Z,65.57
2019-05-20T10:18:56.018Z,67.72
2019-05-20T10:21:24.592Z,64.87
2019-05-20T10:23:53.047Z,57.73
2019-05-20T10:26:21.773Z,62.65
2019-05-20T10:28:50.314Z,66.75
2019-05-20T10:31:18.756Z,66.55
2019-05-20T10:33:48.944Z,65.03
2019-05-20T10:36:17.390Z,65.20
2019-05-20T10:38:57.331Z,69.42
2019-05-20T10:41:16.008Z,72.95
2019-05-20T10:43:46.142Z,70.42
2019-05-20T10:46:14.459Z,67.62
2019-05-20T10:48:42.909Z,67.92
2019-05-20T10:51:11.413Z,69.50
2019-05-20T10:53:39.974Z,67.15
2019-05-20T10:56:08.462Z,69.70
2019-05-20T10:58:36.905Z,67.08
2019-05-20T11:01:05.370Z,69.95
2019-05-20T11:03:33.814Z,61.95
2019-05-20T11:06:02.327Z,60.63
2019-05-20T11:08:30.776Z,64.03
2019-05-20T11:10:59.211Z,68.00
2019-05-20T11:13:27.660Z,69.05
2019-05-20T11:15:56.097Z,68.12
2019-05-20T11:18:24.544Z,70.32
2019-05-20T11:20:52.967Z,68.40
2019-05-20T11:23:21.393Z,61.40
2019-05-20T11:25:49.822Z,65.32
2019-05-20T11:28:18.245Z,65.22
2019-05-20T11:30:46.768Z,63.63
2019-05-20T11:33:15.233Z,72.17
2019-05-20T11:35:43.620Z,68.17
2019-05-20T11:38:12.137Z,63.13
2019-05-20T11:40:40.530Z,62.17
2019-05-20T11:43:08.985Z,63.05
2019-05-20T11:45:37.372Z,57.13
2019-05-20T11:48:05.805Z,54.03
2019-05-20T11:50:34.216Z,59.08
2019-05-20T11:53:02.663Z,60.00
2019-05-20T11:55:31.112Z,53.98
2019-05-20T11:58:14.635Z,57.00
2019-05-20T12:00:29.951Z,60.70
2019-05-20T12:02:58.396Z,59.30
2019-05-20T12:05:26.802Z,54.03
2019-05-20T12:07:55.238Z,58.48
2019-05-20T12:10:23.654Z,58.92
2019-05-20T12:12:52.265Z,53.58
2019-05-20T12:15:20.643Z,55.12
2019-05-20T12:17:49.071Z,55.92
2019-05-20T12:20:17.826Z,47.23
2019-05-20T12:22:46.274Z,52.50
2019-05-20T12:25:15.142Z,55.17
2019-05-20T12:27:43.593Z,52.48
2019-05-20T12:30:12.346Z,48.48
2019-05-20T12:32:40.749Z,48.90
2019-05-20T12:35:09.556Z,54.45
2019-05-20T12:37:37.955Z,52.50
2019-05-20T12:40:08.379Z,49.90
2019-05-20T12:45:09.635Z,46.35
2019-05-20T12:47:38.127Z,42.03
2019-05-20T12:50:06.996Z,47.80
2019-05-20T12:52:35.549Z,50.50
2019-05-20T12:55:08.580Z,45.70
2019-05-20T12:57:35.012Z,42.48
2019-05-20T13:00:07.789Z,48.15
2019-05-20T13:02:36.436Z,46.33
2019-05-20T13:05:07.908Z,54.90
2019-05-20T13:07:36.298Z,56.53
2019-05-20T13:10:26.959Z,60.52
2019-05-20T13:12:39.745Z,58.48
2019-05-20T13:15:10.254Z,61.42
2019-05-20T13:17:43.893Z,60.90
2019-05-20T13:20:09.280Z,56.33
2019-05-20T13:22:37.701Z,60.75
2019-05-20T13:25:07.713Z,52.55
2019-05-20T13:27:36.137Z,49.75
2019-05-20T13:30:06.587Z,57.35
2019-05-20T13:32:35.013Z,42.43
2019-05-20T13:35:04.186Z,45.90
2019-05-20T13:37:32.593Z,50.40
2019-05-20T13:40:03.123Z,49.42
2019-05-20T13:42:31.201Z,52.53
2019-05-20T13:44:59.628Z,53.98
2019-05-20T13:47:28.058Z,61.50
2019-05-20T13:49:56.516Z,61.98
2019-05-20T13:52:26.491Z,62.03
2019-05-20T13:54:54.898Z,62.13
2019-05-20T13:57:23.313Z,67.87
2019-05-20T13:59:51.744Z,64.87
2019-05-20T14:02:20.157Z,64.70
2019-05-20T14:04:49.751Z,63.65
2019-05-20T14:07:18.171Z,71.47
2019-05-20T14:09:46.616Z,65.40
2019-05-20T14:12:15.010Z,67.72
2019-05-20T14:14:43.518Z,68.12
2019-05-20T14:17:11.926Z,65.70
2019-05-20T14:19:40.359Z,73.87
2019-05-20T14:22:08.774Z,69.25
2019-05-20T14:24:37.229Z,69.03
2019-05-20T14:27:05.725Z,73.55
2019-05-20T14:29:34.157Z,67.08
2019-05-20T14:32:02.956Z,66.20
2019-05-20T14:34:31.608Z,72.27
2019-05-20T14:37:00.016Z,65.20
2019-05-20T14:39:28.454Z,64.87
2019-05-20T14:41:56.890Z,66.65
2019-05-20T14:44:25.313Z,70.05
2019-05-20T14:46:53.733Z,66.17
2019-05-20T14:49:22.191Z,66.50
2019-05-20T14:51:50.600Z,61.80
2019-05-20T14:54:19.828Z,67.72
2019-05-20T14:56:48.238Z,61.58
2019-05-20T14:59:16.695Z,67.72
2019-05-20T15:01:45.103Z,67.53
2019-05-20T15:04:13.541Z,64.42
2019-05-20T15:06:41.947Z,60.78
2019-05-20T15:09:10.451Z,60.55
2019-05-20T15:11:39.138Z,69.90
2019-05-20T15:14:07.569Z,59.38
2019-05-20T15:16:35.994Z,63.92
2019-05-20T15:19:04.425Z,61.60
2019-05-20T15:21:32.847Z,66.45
2019-05-20T15:24:01.313Z,62.13
2019-05-20T15:26:30.097Z,65.32
2019-05-20T15:28:58.524Z,62.38
2019-05-20T15:31:26.942Z,69.50
2019-05-20T15:33:55.351Z,60.52
2019-05-20T15:36:24.050Z,65.28
2019-05-20T15:38:52.447Z,62.33
2019-05-20T15:41:20.899Z,65.45
2019-05-20T15:43:49.325Z,60.00
2019-05-20T15:46:17.749Z,62.93
2019-05-20T15:48:47.845Z,61.25
2019-05-20T15:51:16.190Z,61.33
2019-05-20T15:53:44.632Z,61.65
2019-05-20T15:56:13.058Z,61.65
2019-05-20T15:58:41.484Z,67.60
2019-05-20T16:01:09.918Z,59.95
2019-05-20T16:03:38.332Z,66.65
2019-05-20T16:06:06.760Z,66.82
2019-05-20T16:08:35.181Z,67.80
2019-05-20T16:11:06.664Z,70.75
2019-05-20T16:13:35.103Z,104.32
2019-05-20T16:16:03.902Z,107.37
2019-05-20T16:18:32.352Z,115.75
2019-05-20T16:21:00.829Z,109.03
2019-05-20T16:23:29.216Z,115.12
2019-05-20T16:25:57.647Z,123.15
2019-05-20T16:28:26.205Z,116.40
2019-05-20T16:30:54.653Z,103.55
2019-05-20T16:33:23.079Z,117.45
2019-05-20T16:35:51.579Z,101.20
2019-05-20T16:38:19.939Z,59.98
2019-05-20T16:40:48.394Z,61.30
2019-05-20T16:43:16.830Z,47.65
2019-05-20T16:45:45.472Z,58.95
2019-05-20T16:48:16.718Z,60.12
2019-05-20T16:50:47.377Z,39.90
2019-05-20T16:53:15.902Z,44.65
2019-05-20T16:55:44.653Z,47.03
2019-05-20T16:58:30.512Z,33.05
2019-05-20T17:01:03.122Z,19.50
2019-05-20T17:03:29.263Z,28.00
2019-05-20T17:05:57.740Z,35.28
2019-05-20T17:08:26.194Z,58.23
2019-05-20T17:10:54.793Z,60.95
2019-05-20T17:13:23.284Z,88.35
2019-05-20T17:15:51.749Z,60.75
2019-05-20T17:18:20.241Z,68.10
2019-05-20T17:20:50.744Z,72.78
2019-05-20T17:23:19.393Z,69.45
2019-05-20T17:25:52.015Z,62.30
2019-05-20T17:28:19.876Z,60.75
2019-05-20T17:30:48.396Z,68.28
2019-05-20T17:33:16.893Z,61.65
2019-05-20T17:35:45.342Z,58.38
2019-05-20T17:38:14.007Z,63.33
2019-05-20T17:40:42.591Z,68.20
2019-05-20T17:43:11.099Z,57.43
2019-05-20T17:45:39.686Z,62.85
2019-05-20T17:48:11.184Z,63.25
2019-05-20T17:50:39.597Z,67.65
2019-05-20T17:53:08.253Z,72.85
2019-05-20T17:55:36.775Z,79.05
2019-05-20T17:58:05.436Z,72.67
2019-05-20T18:00:33.889Z,66.40
2019-05-20T18:03:02.403Z,82.78
2019-05-20T18:05:31.001Z,93.72
2019-05-20T18:07:59.522Z,81.53
2019-05-20T18:10:28.036Z,86.20
2019-05-20T18:12:56.548Z,73.28
2019-05-20T18:15:24.990Z,76.82
2019-05-20T18:17:53.498Z,80.87
2019-05-20T18:20:22.179Z,75.50
2019-05-20T18:22:51.675Z,75.00
2019-05-20T18:25:20.140Z,67.22
2019-05-20T18:27:48.778Z,90.87
2019-05-20T18:30:17.454Z,87.53
2019-05-20T18:32:46.084Z,103.07
2019-05-20T18:35:19.399Z,95.07
2019-05-20T18:37:49.963Z,111.00
2019-05-20T18:40:19.286Z,104.78
2019-05-20T18:43:18.411Z,99.83
2019-05-20T18:45:46.922Z,113.25
2019-05-20T18:48:15.471Z,116.08
2019-05-20T18:50:47.375Z,115.40
2019-05-20T18:53:15.857Z,109.60
2019-05-20T18:55:44.471Z,100.58
2019-05-20T18:58:12.986Z,102.60
2019-05-20T19:00:41.558Z,85.67
2019-05-20T19:03:11.046Z,85.65
2019-05-20T19:05:39.540Z,89.85
2019-05-20T19:08:08.161Z,80.00
2019-05-20T19:10:36.689Z,80.55
2019-05-20T19:13:05.366Z,82.12
2019-05-20T19:15:33.915Z,81.50
2019-05-20T19:18:03.181Z,80.32
2019-05-20T19:20:31.612Z,74.17
2019-05-20T19:23:00.098Z,78.37
2019-05-20T19:25:37.376Z,70.17
2019-05-20T19:27:58.823Z,73.40
2019-05-20T19:30:27.253Z,68.02
2019-05-20T19:32:55.716Z,68.87
2019-05-20T19:35:25.278Z,75.80
2019-05-20T19:37:53.769Z,68.00
2019-05-20T19:40:22.326Z,67.17
2019-05-20T19:42:50.792Z,67.90
2019-05-20T19:45:19.291Z,65.62
2019-05-20T19:47:49.041Z,60.20
2019-05-20T19:50:17.570Z,65.28
2019-05-20T19:52:46.976Z,63.17
2019-05-20T19:55:18.589Z,56.80
2019-05-20T19:57:45.626Z,59.08
2019-05-20T20:00:16.522Z,56.20
2019-05-20T20:05:14.071Z,55.52
2019-05-20T20:07:42.919Z,58.83
2019-05-20T20:10:12.358Z,55.60
2019-05-20T20:12:43.526Z,50.43
2019-05-20T20:15:21.150Z,50.98
2019-05-20T20:17:53.778Z,56.53
2019-05-20T20:20:22.234Z,56.90
2019-05-20T20:22:51.002Z,56.40
2019-05-20T20:25:19.607Z,58.40
2019-05-20T20:27:48.072Z,58.17
2019-05-20T20:30:16.862Z,57.43
2019-05-20T20:32:45.380Z,58.05
2019-05-20T20:35:14.113Z,60.73
2019-05-20T20:37:45.380Z,57.53
2019-05-20T20:40:15.017Z,57.85
2019-05-20T20:42:44.846Z,55.83
2019-05-20T20:45:14.476Z,61.25
2019-05-20T20:47:42.947Z,59.40
2019-05-20T20:50:13.313Z,57.70
2019-05-20T20:52:42.528Z,61.98
2019-05-20T20:55:11.128Z,61.80
2019-05-20T20:57:39.612Z,61.00
2019-05-20T21:00:11.076Z,61.58
2019-05-20T21:02:52.790Z,67.37
2019-05-20T21:05:12.092Z,63.92
2019-05-20T21:07:43.698Z,63.33
2019-05-20T21:10:12.304Z,61.50
2019-05-20T21:12:40.887Z,60.67
2019-05-20T21:15:10.754Z,61.55
2019-05-20T21:17:39.317Z,61.60
2019-05-20T21:20:09.613Z,51.50
2019-05-20T21:22:38.155Z,54.13
2019-05-20T21:25:10.394Z,62.60
2019-05-20T21:27:38.837Z,63.23
2019-05-20T21:30:08.528Z,59.83
2019-05-20T21:32:37.023Z,61.08
2019-05-20T21:35:09.620Z,57.15
2019-05-20T21:37:39.555Z,58.83
2019-05-20T21:40:08.662Z,57.70
2019-05-20T21:42:37.189Z,62.85
2019-05-20T21:45:06.994Z,59.50
2019-05-20T21:47:35.503Z,60.38
2019-05-20T21:50:04.885Z,62.78
2019-05-20T21:52:33.413Z,57.60
2019-05-20T21:55:04.036Z,57.50
2019-05-20T21:57:32.439Z,59.40
2019-05-20T22:00:00.931Z,61.18
2019-05-20T22:02:29.469Z,65.10
2019-05-20T22:04:57.877Z,71.87
2019-05-20T22:07:28.010Z,68.67
2019-05-20T22:09:56.480Z,66.87
2019-05-20T22:12:24.956Z,64.45
2019-05-20T22:14:53.490Z,63.65
2019-05-20T22:17:21.952Z,66.50
2019-05-20T22:19:50.571Z,73.67
2019-05-20T22:22:29.363Z,65.28
2019-05-20T22:24:57.845Z,61.20
2019-05-20T22:27:26.262Z,76.30
2019-05-20T22:29:54.704Z,86.55
2019-05-20T22:32:23.221Z,71.47
2019-05-20T22:34:53.910Z,79.70
2019-05-20T22:37:21.884Z,75.45
2019-05-20T22:39:50.376Z,69.53
2019-05-20T22:42:18.799Z,66.07
2019-05-20T22:44:48.554Z,73.42
2019-05-20T22:47:18.526Z,80.47
2019-05-20T22:49:46.976Z,73.28
2019-05-20T22:52:15.424Z,77.53
2019-05-20T22:54:43.926Z,76.95
2019-05-20T22:57:12.438Z,74.60
2019-05-20T22:59:40.890Z,63.60
2019-05-20T23:02:10.880Z,58.95
2019-05-20T23:04:42.334Z,60.90
2019-05-20T23:07:10.903Z,64.97
2019-05-20T23:09:39.347Z,65.08
2019-05-20T23:12:07.759Z,63.70
2019-05-20T23:14:36.201Z,66.05
2019-05-20T23:17:04.661Z,64.40
2019-05-20T23:19:33.115Z,68.60
2019-05-20T23:22:01.569Z,69.65
2019-05-20T23:24:30.041Z,70.32
2019-05-20T23:26:58.487Z,78.33
2019-05-20T23:29:26.926Z,77.42
2019-05-20T23:31:55.378Z,69.70
2019-05-20T23:34:23.850Z,70.10
2019-05-20T23:36:52.302Z,67.08
2019-05-20T23:39:20.766Z,68.07
2019-05-20T23:41:49.255Z,74.12
2019-05-20T23:44:17.701Z,68.75
2019-05-20T23:46:46.148Z,71.55
2019-05-20T23:49:14.592Z,73.60
2019-05-20T23:51:43.094Z,64.32
2019-05-20T23:54:11.571Z,69.17
2019-05-20T23:56:40.024Z,73.20
2019-05-20T23:59:09.994Z,61.68
